Hovedside
METAR-TAF:

METAR-TAF

Lufthavner :

Ronneby, Sverige

Ronneby lufthavn

breddegrad: 56-16N, lengdegrad: 015-17E, høyde over havet: 58 m

Gjeldene værobservasjon

Denne rapporten ble laget for 41 minutter siden, klokken 21:50 UTC
Vind 9 kt fra Nord-nordøst
Temperatur 15°C
Luftfuktighet 88%
Trykk 1010 hPa
Sikt 10 km eller mer

METAR: ESDF 242150Z AUTO 03009KT 9999 SCT066/// 15/13 Q1010

Tid: 00:31 (22:31 UTC)

Varsel

Denne rapporten ble laget for 8 timer og 1 minutter siden, klokken 14:30 UTC
Varsel gyldig fra 24. klokken 15 UTC til 24. klokken 19 UTC
Vind 8 kt fra Øst-nordøst
Sikt 10 km eller mer
ingen skyer under 1500 m og ingen bygeskyer

TAF: ESDF 241430Z 2415/2419 07008KT CAVOK

Værobservasjoner og værvarsel for over 4000 flyplasser (METAR- og TAF-rapporter).

Tilgjengelige stasjoner er representert av de røde og gule prikkene på kartet.

Hold musepekeren over prikken for å se navnet på stasjonen.

Klikk så for å se værobservasjoner og -varsler.

For å forandre kartet kan du klikke på den grønne knappen med svart kryss for å zoome inn, på den grønne knappen med strek for å zoome ut, eller på de grønne pilene for å se tilstøtende kart.


METAR-TAF: